Time;durP1;ratioP1;P1;durP2;ratioP2;P2;SDS_P1;SDS_P2;PMS_P1;PMS_P2;Temp;Humidity;BMP_temperature;BMP_pressure;BME280_temperature;BME280_humidity;BME280_pressure;Samples;Min_cycle;Max_cycle;Signal;HPM_P1;HPM_P2
2022/03/09 00:00:26;;;;;;;4.00;1.87;;;;;;;-1.58;62.82;100569.49;1740473;82;21139;-60
2022/03/09 00:02:55;;;;;;;3.00;2.00;;;;;;;-1.62;62.82;100564.34;1740135;82;21082;-60
2022/03/09 00:05:26;;;;;;;2.98;1.87;;;;;;;-1.66;63.01;100566.89;1740495;82;21059;-59
2022/03/09 00:07:55;;;;;;;3.87;2.08;;;;;;;-1.65;63.31;100571.78;1740387;82;21169;-60
2022/03/09 00:10:26;;;;;;;4.60;2.05;;;;;;;-1.64;63.68;100573.50;1740214;81;21011;-60
2022/03/09 00:12:56;;;;;;;3.30;1.95;;;;;;;-1.65;63.88;100578.02;1740173;81;21040;-60
2022/03/09 00:15:28;;;;;;;5.20;1.98;;;;;;;-1.66;63.92;100578.12;1740407;82;21075;-60
2022/03/09 00:17:57;;;;;;;3.80;1.98;;;;;;;-1.69;64.14;100575.19;1740091;82;21487;-61
2022/03/09 00:20:28;;;;;;;3.67;2.10;;;;;;;-1.69;64.11;100576.53;1740205;82;21110;-60
2022/03/09 00:22:58;;;;;;;4.72;2.55;;;;;;;-1.72;63.94;100574.08;1740347;82;21162;-61
2022/03/09 00:25:29;;;;;;;3.20;1.98;;;;;;;-1.73;64.04;100569.67;1740183;82;21055;-61
2022/03/09 00:27:59;;;;;;;3.37;1.90;;;;;;;-1.72;63.93;100570.05;1740367;82;21142;-61
2022/03/09 00:30:28;;;;;;;6.03;1.90;;;;;;;-1.71;63.98;100564.19;1740358;82;21039;-60
2022/03/09 00:32:57;;;;;;;3.80;2.17;;;;;;;-1.71;64.08;100567.73;1747802;82;21042;-61
2022/03/09 00:35:27;;;;;;;4.72;2.05;;;;;;;-1.68;64.07;100568.84;1754156;82;21003;-61
2022/03/09 00:37:57;;;;;;;4.05;2.20;;;;;;;-1.66;63.97;100562.87;1754204;82;21672;-60
2022/03/09 00:40:27;;;;;;;5.00;2.27;;;;;;;-1.66;64.04;100572.76;1754238;82;21038;-61
2022/03/09 00:42:58;;;;;;;7.83;2.77;;;;;;;-1.69;63.84;100576.53;1754114;82;21035;-61
2022/03/09 00:45:27;;;;;;;4.37;2.50;;;;;;;-1.70;63.76;100576.64;1754080;82;21466;-61
2022/03/09 00:47:58;;;;;;;5.20;2.52;;;;;;;-1.74;63.78;100574.67;1753831;82;21039;-61
2022/03/09 00:50:29;;;;;;;4.78;2.62;;;;;;;-1.76;63.96;100569.91;1753945;82;21102;-60
2022/03/09 00:52:58;;;;;;;5.10;2.55;;;;;;;-1.77;64.13;100574.91;1753908;80;21054;-59
2022/03/09 00:55:29;;;;;;;5.28;2.65;;;;;;;-1.77;64.17;100567.34;1753916;82;21062;-60
2022/03/09 00:57:58;;;;;;;5.10;2.80;;;;;;;-1.80;64.33;100563.05;1754088;81;21639;-61
2022/03/09 01:00:27;;;;;;;5.75;2.47;;;;;;;-1.81;64.47;100561.34;1753919;82;21078;-61
2022/03/09 01:02:57;;;;;;;5.67;2.67;;;;;;;-1.81;64.64;100564.02;1754026;82;21039;-61
2022/03/09 01:06:29;;;;;;;5.12;2.60;;;;;;;-1.81;64.71;100568.05;1753904;80;21078;-60
2022/03/09 01:08:58;;;;;;;4.90;2.75;;;;;;;-1.86;64.90;100562.16;1754141;82;21118;-60
2022/03/09 01:11:27;;;;;;;3.77;2.37;;;;;;;-1.84;65.17;100568.77;1753926;82;21070;-59
2022/03/09 01:13:57;;;;;;;5.22;2.22;;;;;;;-1.82;65.30;100566.34;1754083;82;21031;-62
2022/03/09 01:16:26;;;;;;;3.27;2.02;;;;;;;-1.78;65.26;100569.16;1753986;82;21039;-60
2022/03/09 01:18:57;;;;;;;3.80;2.10;;;;;;;-1.76;65.16;100572.59;1656682;86;21068;-62
2022/03/09 01:21:26;;;;;;;4.47;2.22;;;;;;;-1.74;65.15;100567.95;1656494;85;21113;-61
2022/03/09 01:23:56;;;;;;;4.22;2.25;;;;;;;-1.71;65.00;100573.59;1656437;86;21115;-60
2022/03/09 01:26:26;;;;;;;3.42;2.40;;;;;;;-1.72;65.00;100564.67;1656843;86;21079;-60
2022/03/09 01:28:55;;;;;;;4.47;2.70;;;;;;;-1.72;65.02;100562.47;1656601;86;21055;-61
2022/03/09 01:31:24;;;;;;;4.45;2.58;;;;;;;-1.74;64.84;100559.91;1656711;86;21047;-60
2022/03/09 01:33:54;;;;;;;4.10;2.25;;;;;;;-1.73;64.71;100566.98;1652260;85;21067;-60
2022/03/09 01:36:23;;;;;;;4.60;2.80;;;;;;;-1.76;64.50;100562.33;1651360;87;21051;-60
2022/03/09 01:38:53;;;;;;;5.35;2.58;;;;;;;-1.80;64.52;100564.88;1651066;87;21080;-60
2022/03/09 01:41:22;;;;;;;5.30;2.75;;;;;;;-1.81;64.63;100562.68;1651075;87;21505;-61
2022/03/09 01:44:21;;;;;;;4.67;2.60;;;;;;;-1.82;64.60;100560.97;1705660;82;21433;-61
2022/03/09 01:46:52;;;;;;;4.60;2.05;;;;;;;-1.79;64.75;100570.62;1737865;81;21047;-61
2022/03/09 01:49:21;;;;;;;4.72;2.60;;;;;;;-1.78;64.64;100566.48;1737774;82;21035;-61
2022/03/09 01:51:53;;;;;;;3.87;2.05;;;;;;;-1.76;64.62;100570.39;1737773;82;21095;-60
2022/03/09 01:54:21;;;;;;;6.30;2.60;;;;;;;-1.77;64.54;100573.56;1738078;82;21031;-60
2022/03/09 01:56:52;;;;;;;3.70;2.30;;;;;;;-1.78;64.39;100581.25;1737799;82;21043;-61
2022/03/09 01:59:21;;;;;;;5.17;2.70;;;;;;;-1.79;64.30;100573.30;1737948;82;21084;-60
2022/03/09 02:01:50;;;;;;;5.15;2.65;;;;;;;-1.82;64.47;100578.91;1737737;82;21443;-60
2022/03/09 02:04:21;;;;;;;5.35;2.62;;;;;;;-1.83;64.45;100583.42;1737772;82;21087;-60
2022/03/09 02:06:57;;;;;;;4.33;2.42;;;;;;;-1.81;64.40;100582.82;1737885;82;21043;-61
2022/03/09 02:09:46;;;;;;;6.10;3.02;;;;;;;-1.80;64.28;100586.36;1738198;82;21113;-61
2022/03/09 02:12:18;;;;;;;4.53;2.92;;;;;;;-1.86;64.21;100588.16;1737839;82;21039;-62
2022/03/09 02:14:51;;;;;;;5.78;2.85;;;;;;;-1.88;64.26;100584.73;1737879;82;21071;-60
2022/03/09 02:17:23;;;;;;;4.37;2.30;;;;;;;-1.90;64.35;100585.33;1738113;82;21035;-60
2022/03/09 02:19:53;;;;;;;6.22;3.20;;;;;;;-1.90;64.45;100586.19;1737834;82;21074;-60
2022/03/09 02:22:38;;;;;;;4.60;2.67;;;;;;;-1.89;64.43;100587.05;1737848;82;21028;-61
2022/03/09 02:25:12;;;;;;;5.90;3.13;;;;;;;-1.91;64.58;100587.16;1738078;82;21051;-61
2022/03/09 02:27:42;;;;;;;6.08;3.00;;;;;;;-1.92;64.59;100586.79;1737978;82;21059;-60
2022/03/09 02:30:17;;;;;;;5.08;2.83;;;;;;;-1.92;64.64;100587.64;1738054;82;21043;-61
2022/03/09 02:32:48;;;;;;;5.83;2.60;;;;;;;-1.91;64.59;100595.22;1741708;82;21090;-61
2022/03/09 02:35:18;;;;;;;5.00;2.58;;;;;;;-1.92;64.61;100598.88;1753955;82;21054;-60
2022/03/09 02:37:47;;;;;;;6.15;2.80;;;;;;;-1.93;64.61;100595.81;1753958;82;21089;-61
2022/03/09 02:40:17;;;;;;;5.45;2.33;;;;;;;-1.90;64.59;100602.30;1754040;82;21030;-61
2022/03/09 02:42:46;;;;;;;5.50;2.92;;;;;;;-1.89;64.52;100609.87;1754126;82;21070;-60
2022/03/09 02:45:15;;;;;;;5.08;2.75;;;;;;;-1.93;64.33;100605.22;1754130;82;21064;-62
2022/03/09 02:47:45;;;;;;;4.47;2.87;;;;;;;-1.98;64.23;100602.84;1753930;82;21003;-62
2022/03/09 02:50:15;;;;;;;6.35;2.80;;;;;;;-2.01;64.31;100599.03;1753870;80;21525;-61
2022/03/09 02:52:46;;;;;;;6.08;2.87;;;;;;;-2.02;64.21;100603.17;1753963;82;21046;-61
2022/03/09 02:55:15;;;;;;;8.25;3.12;;;;;;;-2.04;64.34;100609.14;1753766;82;21493;-60
2022/03/09 02:57:45;;;;;;;4.95;2.83;;;;;;;-2.05;64.46;100612.80;1754014;82;21058;-60
2022/03/09 03:00:15;;;;;;;7.15;3.10;;;;;;;-2.05;64.39;100615.48;1754284;82;21093;-61
2022/03/09 03:02:45;;;;;;;6.03;3.08;;;;;;;-2.04;64.40;100619.39;1753961;82;21035;-60
2022/03/09 03:05:16;;;;;;;6.03;2.92;;;;;;;-2.02;64.45;100616.59;1754250;82;21042;-61
2022/03/09 03:07:46;;;;;;;5.40;2.83;;;;;;;-2.03;64.55;100617.56;1753956;82;21030;-60
2022/03/09 03:10:15;;;;;;;6.95;3.17;;;;;;;-2.06;64.61;100617.30;1753951;80;21063;-61
2022/03/09 03:12:46;;;;;;;6.08;2.90;;;;;;;-2.03;64.70;100624.27;1754161;82;21078;-61
2022/03/09 03:15:15;;;;;;;6.60;2.55;;;;;;;-2.03;64.74;100624.27;1754253;82;21034;-60
2022/03/09 03:17:46;;;;;;;5.50;3.05;;;;;;;-2.01;64.84;100627.70;1753940;82;21038;-61
2022/03/09 03:20:15;;;;;;;5.83;3.00;;;;;;;-2.02;64.87;100623.30;1753978;82;21038;-60
2022/03/09 03:22:46;;;;;;;6.60;3.30;;;;;;;-2.03;64.95;100628.30;1753810;80;21039;-62
2022/03/09 03:25:16;;;;;;;5.90;3.10;;;;;;;-2.02;65.00;100620.14;1754245;82;21042;-61
2022/03/09 03:27:46;;;;;;;5.60;3.20;;;;;;;-2.00;65.06;100624.91;1754016;82;21463;-61
2022/03/09 03:30:16;;;;;;;5.87;3.25;;;;;;;-1.97;65.13;100622.48;1754166;82;21046;-61
2022/03/09 03:32:45;;;;;;;7.00;3.20;;;;;;;-1.96;65.18;100620.17;1754035;82;21517;-61
2022/03/09 03:35:15;;;;;;;6.83;3.40;;;;;;;-1.94;65.18;100611.55;1754055;82;21089;-61
2022/03/09 03:37:44;;;;;;;5.92;3.40;;;;;;;-1.93;65.22;100618.64;1754096;82;21055;-60
2022/03/09 03:40:14;;;;;;;7.15;3.05;;;;;;;-1.91;65.30;100620.73;1753996;82;21083;-63
2022/03/09 03:42:43;;;;;;;7.53;3.37;;;;;;;-1.89;65.29;100619.27;1754020;80;21030;-60
2022/03/09 03:45:12;;;;;;;5.85;3.20;;;;;;;-1.87;65.33;100622.22;1753919;80;21084;-60
2022/03/09 03:47:41;;;;;;;8.43;3.52;;;;;;;-1.85;65.34;100622.95;1753899;82;21082;-61
2022/03/09 03:50:11;;;;;;;6.47;3.22;;;;;;;-1.83;65.25;100622.36;1753961;82;21026;-60
2022/03/09 03:52:41;;;;;;;6.83;3.60;;;;;;;-1.83;65.16;100625.05;1753975;82;21070;-61
2022/03/09 03:55:10;;;;;;;5.47;3.08;;;;;;;-1.86;65.11;100617.22;1753984;82;21970;-61
2022/03/09 03:57:41;;;;;;;6.53;3.55;;;;;;;-1.86;65.08;100623.92;1753944;82;21525;-61
2022/03/09 04:00:11;;;;;;;5.97;3.33;;;;;;;-1.92;65.05;100621.70;1754217;82;21043;-60
2022/03/09 04:03:00;;;;;;;7.37;3.50;;;;;;;-1.95;65.19;100626.80;1753936;82;21546;-61
2022/03/09 04:05:47;;;;;;;6.72;3.30;;;;;;;-1.97;65.31;100619.80;1753894;80;21682;-60
2022/03/09 04:08:34;;;;;;;6.55;3.58;;;;;;;-1.99;65.42;100628.45;1753881;82;21170;-61
2022/03/09 04:11:20;;;;;;;7.50;3.25;;;;;;;-1.98;65.42;100632.36;1753947;82;21485;-60
2022/03/09 04:14:07;;;;;;;8.73;3.58;;;;;;;-2.01;65.50;100628.56;1754053;82;21034;-61
2022/03/09 04:16:54;;;;;;;8.93;4.05;;;;;;;-2.01;65.52;100629.91;1754060;82;21079;-62
2022/03/09 04:19:42;;;;;;;6.33;3.17;;;;;;;-2.00;65.51;100626.73;1754240;80;21058;-60
2022/03/09 04:22:29;;;;;;;6.00;3.20;;;;;;;-1.98;65.59;100627.48;1754036;82;21063;-61
2022/03/09 04:25:16;;;;;;;7.37;3.50;;;;;;;-1.99;65.80;100629.80;1753873;82;21030;-61
2022/03/09 04:28:03;;;;;;;7.42;3.42;;;;;;;-2.04;65.93;100627.93;1753913;82;21503;-61
2022/03/09 04:30:49;;;;;;;8.18;3.27;;;;;;;-2.07;66.11;100630.84;1754069;82;21162;-60
2022/03/09 04:33:36;;;;;;;6.28;3.15;;;;;;;-2.07;66.19;100638.89;1753791;82;21059;-61
2022/03/09 04:40:42;;;;;;;6.95;3.22;;;;;;;-2.05;66.18;100632.44;1754041;81;21171;-62
2022/03/09 04:43:12;;;;;;;4.92;2.90;;;;;;;-2.05;66.17;100635.12;1753872;82;21033;-62
2022/03/09 04:45:42;;;;;;;6.80;3.65;;;;;;;-2.05;66.12;100641.84;1753930;80;21038;-61
2022/03/09 04:48:13;;;;;;;4.83;3.17;;;;;;;-2.06;66.17;100642.80;1753874;82;21068;-61
2022/03/09 04:50:43;;;;;;;5.40;3.30;;;;;;;-2.09;66.28;100641.69;1753966;82;21006;-62
2022/03/09 04:53:15;;;;;;;5.65;3.50;;;;;;;-2.11;66.41;100644.11;1754139;82;21059;-61
2022/03/09 04:56:03;;;;;;;5.92;3.10;;;;;;;-2.10;66.57;100650.70;1754123;82;21083;-61
2022/03/09 04:58:50;;;;;;;7.00;3.70;;;;;;;-2.08;66.82;100650.59;1754248;82;21090;-61
2022/03/09 05:01:21;;;;;;;7.30;3.60;;;;;;;-2.05;66.96;100663.80;1753917;82;21034;-61
2022/03/09 05:03:51;;;;;;;5.85;3.30;;;;;;;-2.07;67.16;100657.69;1753838;82;21490;-61
2022/03/09 05:06:20;;;;;;;6.60;3.50;;;;;;;-2.04;67.31;100664.17;1754237;82;21031;-61
2022/03/09 05:08:50;;;;;;;8.08;3.58;;;;;;;-2.03;67.39;100666.75;1754115;82;21077;-62
2022/03/09 05:11:20;;;;;;;8.58;3.72;;;;;;;-2.01;67.47;100665.30;1754184;82;21082;-61
2022/03/09 05:13:49;;;;;;;5.90;3.42;;;;;;;-2.00;67.63;100661.64;1753843;80;21435;-61
2022/03/09 05:16:19;;;;;;;5.28;3.10;;;;;;;-1.97;67.73;100671.67;1754049;82;21075;-60
2022/03/09 05:18:49;;;;;;;7.15;3.58;;;;;;;-1.91;67.76;100673.09;1753932;82;21062;-61
2022/03/09 05:21:18;;;;;;;5.95;3.40;;;;;;;-1.92;67.73;100672.23;1754148;82;21034;-63
2022/03/09 05:23:48;;;;;;;7.55;3.80;;;;;;;-1.90;67.76;100682.86;1754094;82;21038;-61
2022/03/09 05:26:16;;;;;;;6.15;3.62;;;;;;;-1.90;67.67;100685.55;1753949;82;21090;-61
2022/03/09 05:28:46;;;;;;;6.53;3.25;;;;;;;-1.91;67.71;100689.20;1753925;82;21031;-61
2022/03/09 05:31:14;;;;;;;7.37;3.05;;;;;;;-1.91;67.80;100682.48;1754021;82;21028;-61
2022/03/09 05:33:44;;;;;;;5.10;2.83;;;;;;;-1.92;67.89;100691.51;1751223;82;21032;-61
2022/03/09 05:36:13;;;;;;;7.55;3.00;;;;;;;-1.92;68.00;100691.51;1740366;82;21098;-61
2022/03/09 05:38:42;;;;;;;5.25;2.87;;;;;;;-1.92;67.93;100695.54;1740105;82;21035;-61
2022/03/09 05:41:12;;;;;;;6.20;2.92;;;;;;;-1.94;67.96;100693.45;1740109;82;21067;-61
2022/03/09 05:43:42;;;;;;;6.15;2.92;;;;;;;-1.93;68.02;100700.53;1740249;82;21048;-62
2022/03/09 05:46:13;;;;;;;4.67;2.90;;;;;;;-1.91;68.00;100699.94;1737276;82;21068;-62
2022/03/09 05:48:44;;;;;;;5.80;2.70;;;;;;;-1.89;67.91;100712.77;1740383;82;21031;-62
2022/03/09 05:51:34;;;;;;;6.03;2.90;;;;;;;-1.90;67.82;100711.05;1740537;82;21082;-61
2022/03/09 05:54:03;;;;;;;5.17;2.90;;;;;;;-1.90;67.82;100715.56;1740250;82;21038;-61
2022/03/09 05:56:32;;;;;;;5.85;2.85;;;;;;;-1.91;67.87;100716.05;1740207;82;21028;-60
2022/03/09 05:59:01;;;;;;;7.75;3.55;;;;;;;-1.93;67.88;100720.67;1740203;82;21452;-60
2022/03/09 06:01:30;;;;;;;7.33;2.92;;;;;;;-1.94;67.84;100710.90;1740452;81;21079;-61
2022/03/09 06:04:02;;;;;;;6.12;3.02;;;;;;;-1.94;67.80;100714.93;1740372;82;21483;-62
2022/03/09 06:06:33;;;;;;;5.50;3.05;;;;;;;-1.90;67.82;100720.45;1740223;82;20999;-61
2022/03/09 06:09:02;;;;;;;7.03;2.92;;;;;;;-1.84;67.69;100724.03;1740291;82;21499;-61
2022/03/09 06:11:53;;;;;;;7.95;3.20;;;;;;;-1.79;67.43;100724.56;1740159;82;21008;-60
2022/03/09 06:14:37;;;;;;;7.50;3.30;;;;;;;-1.77;67.28;100725.80;1740215;82;21091;-60
2022/03/09 06:17:08;;;;;;;9.13;3.22;;;;;;;-1.75;66.94;100724.72;1740523;82;21030;-62
2022/03/09 06:19:38;;;;;;;7.83;3.27;;;;;;;-1.76;66.86;100729.71;1740157;82;21047;-61
2022/03/09 06:22:08;;;;;;;6.20;3.00;;;;;;;-1.75;66.77;100731.43;1740213;82;21054;-63
2022/03/09 06:24:37;;;;;;;7.65;3.58;;;;;;;-1.76;66.80;100728.37;1740430;82;21086;-62
2022/03/09 06:27:06;;;;;;;6.67;3.25;;;;;;;-1.74;66.65;100731.80;1740199;82;21040;-62
2022/03/09 06:29:35;;;;;;;6.42;3.47;;;;;;;-1.73;66.63;100739.38;1740191;82;21031;-62
2022/03/09 06:32:05;;;;;;;10.53;4.22;;;;;;;-1.72;66.57;100729.86;1740475;81;21556;-62
2022/03/09 06:34:34;;;;;;;5.65;3.02;;;;;;;-1.71;66.57;100739.64;1740110;82;21075;-61
2022/03/09 06:37:04;;;;;;;8.15;3.45;;;;;;;-1.73;66.42;100734.86;1740179;82;21028;-61
2022/03/09 06:39:34;;;;;;;5.67;3.20;;;;;;;-1.77;66.48;100741.42;1740439;82;21472;-62
2022/03/09 06:42:04;;;;;;;6.67;3.42;;;;;;;-1.76;66.56;100755.23;1740215;82;21444;-60
2022/03/09 06:44:35;;;;;;;8.05;3.50;;;;;;;-1.78;66.59;100746.42;1740208;82;21039;-61
2022/03/09 06:47:05;;;;;;;6.03;3.12;;;;;;;-1.80;66.81;100755.08;1740519;82;21036;-61
2022/03/09 06:49:34;;;;;;;7.65;3.72;;;;;;;-1.76;66.92;100753.03;1740194;82;21075;-61
2022/03/09 06:52:05;;;;;;;7.67;3.55;;;;;;;-1.73;66.82;100746.95;1740136;82;21043;-64
2022/03/09 06:54:34;;;;;;;6.33;3.50;;;;;;;-1.77;66.81;100744.11;1740248;82;21061;-61
2022/03/09 06:57:04;;;;;;;7.75;3.50;;;;;;;-1.76;66.95;100740.45;1740317;82;21071;-60
2022/03/09 06:59:34;;;;;;;8.15;3.95;;;;;;;-1.72;67.09;100739.75;1740075;82;21047;-61
2022/03/09 07:02:04;;;;;;;9.93;3.80;;;;;;;-1.64;67.15;100742.73;1740021;82;21051;-61
2022/03/09 07:04:33;;;;;;;6.33;3.47;;;;;;;-1.55;66.99;100746.09;1740381;82;21455;-61
2022/03/09 07:07:03;;;;;;;6.12;3.70;;;;;;;-1.49;66.92;100748.82;1740423;82;21051;-61
2022/03/09 07:09:31;;;;;;;8.30;4.03;;;;;;;-1.45;66.87;100749.83;1740214;82;21054;-63
2022/03/09 07:12:01;;;;;;;8.55;4.15;;;;;;;-1.48;66.76;100750.53;1740065;82;21102;-61
2022/03/09 07:14:30;;;;;;;8.08;4.00;;;;;;;-1.46;66.92;100745.91;1740458;82;21039;-60
2022/03/09 07:16:59;;;;;;;6.62;3.62;;;;;;;-1.40;67.08;100744.11;1740168;82;21075;-61
2022/03/09 07:19:30;;;;;;;9.65;4.42;;;;;;;-1.32;67.13;100746.61;1740113;82;21561;-62
2022/03/09 07:21:59;;;;;;;9.35;4.42;;;;;;;-1.24;66.88;100738.01;1740314;82;21067;-61
2022/03/09 07:24:29;;;;;;;10.75;4.33;;;;;;;-1.18;66.80;100737.55;1740100;82;21098;-60
2022/03/09 07:26:59;;;;;;;11.38;4.72;;;;;;;-1.15;66.71;100750.77;1740133;82;21581;-62
2022/03/09 07:29:28;;;;;;;8.05;4.30;;;;;;;-1.08;66.68;100749.33;1740088;82;21101;-61
2022/03/09 07:31:59;;;;;;;9.50;4.35;;;;;;;-1.02;66.57;100752.91;1740414;81;21647;-61
2022/03/09 07:34:29;;;;;;;7.85;3.92;;;;;;;-0.93;66.44;100751.35;1743304;82;21054;-62
2022/03/09 07:36:59;;;;;;;8.50;4.40;;;;;;;-0.90;66.05;100755.64;1753901;82;21472;-61
2022/03/09 07:39:31;;;;;;;11.20;4.10;;;;;;;-0.94;66.05;100750.98;1753972;80;21026;-62
2022/03/09 07:42:02;;;;;;;9.10;4.15;;;;;;;-0.90;66.09;100753.81;1754035;82;21458;-62
2022/03/09 07:44:31;;;;;;;8.10;4.58;;;;;;;-0.87;65.80;100750.89;1753972;82;21051;-62
2022/03/09 07:47:04;;;;;;;9.25;4.78;;;;;;;-0.85;65.80;100746.74;1753969;82;21507;-61
2022/03/09 07:49:33;;;;;;;8.15;4.78;;;;;;;-0.81;65.75;100748.22;1754151;82;21494;-61
2022/03/09 07:52:06;;;;;;;10.08;4.78;;;;;;;-0.78;65.79;100743.95;1754011;80;21038;-63
2022/03/09 07:54:36;;;;;;;9.65;4.30;;;;;;;-0.73;65.66;100747.16;1753971;82;21485;-61
2022/03/09 07:57:05;;;;;;;9.50;4.55;;;;;;;-0.70;65.44;100741.53;1725107;82;21074;-61
2022/03/09 07:59:35;;;;;;;11.18;4.58;;;;;;;-0.71;65.22;100743.37;1753956;82;21062;-61
2022/03/09 08:02:07;;;;;;;9.85;4.50;;;;;;;-0.73;64.86;100733.70;1753956;82;21071;-60
2022/03/09 08:04:37;;;;;;;12.40;4.72;;;;;;;-0.72;64.74;100736.76;1754238;82;21451;-61
2022/03/09 08:07:10;;;;;;;8.28;4.30;;;;;;;-0.70;64.65;100737.50;1753982;82;21303;-61
2022/03/09 08:09:42;;;;;;;9.00;4.50;;;;;;;-0.64;64.65;100734.38;1753905;82;21023;-61
2022/03/09 08:12:11;;;;;;;11.20;4.70;;;;;;;-0.58;64.54;100734.38;1753876;82;21463;-61
2022/03/09 08:14:40;;;;;;;9.10;4.58;;;;;;;-0.50;64.55;100740.03;1754102;82;21062;-61
2022/03/09 08:17:12;;;;;;;8.85;4.12;;;;;;;-0.42;64.38;100737.12;1753923;82;21010;-62
2022/03/09 08:19:41;;;;;;;8.93;4.50;;;;;;;-0.22;64.09;100738.73;1753971;82;21042;-62
2022/03/09 08:22:12;;;;;;;7.35;4.20;;;;;;;-0.02;63.73;100726.76;1753989;82;21078;-61
2022/03/09 08:24:42;;;;;;;9.30;5.37;;;;;;;0.18;63.24;100739.16;1754119;82;21507;-61
2022/03/09 08:27:13;;;;;;;9.93;4.85;;;;;;;0.27;62.53;100740.62;1753976;82;21062;-61
2022/03/09 08:29:44;;;;;;;9.40;4.90;;;;;;;0.27;62.02;100735.23;1754258;82;21050;-61
2022/03/09 08:32:19;;;;;;;9.08;4.70;;;;;;;0.25;61.96;100744.42;1754190;82;21031;-61
2022/03/09 08:34:48;;;;;;;9.38;5.17;;;;;;;0.19;61.85;100734.99;1750812;82;21075;-60
2022/03/09 08:37:17;;;;;;;13.20;6.17;;;;;;;0.15;62.01;100735.36;1740339;82;21076;-61
2022/03/09 08:39:48;;;;;;;9.05;5.00;;;;;;;0.14;62.03;100743.94;1740174;82;21454;-61
2022/03/09 08:42:17;;;;;;;9.38;5.00;;;;;;;0.14;62.16;100739.89;1740191;82;21542;-60
2022/03/09 08:44:46;;;;;;;10.15;5.00;;;;;;;0.11;61.89;100741.48;1740361;82;21472;-60
2022/03/09 08:47:15;;;;;;;7.78;4.40;;;;;;;0.02;61.90;100734.63;1740195;82;20999;-63
2022/03/09 08:49:44;;;;;;;10.98;4.90;;;;;;;-0.01;62.23;100737.05;1740133;81;22022;-60
2022/03/09 08:52:14;;;;;;;10.58;4.72;;;;;;;-0.01;62.15;100741.08;1740070;82;21016;-60
2022/03/09 08:54:44;;;;;;;10.53;5.25;;;;;;;-0.03;62.16;100740.34;1686581;85;21062;-59
2022/03/09 08:57:14;;;;;;;10.30;5.05;;;;;;;-0.07;62.25;100744.27;1686566;85;21103;-60
2022/03/09 08:59:45;;;;;;;8.70;4.90;;;;;;;-0.10;62.32;100735.08;1686329;85;21471;-61
2022/03/09 09:02:16;;;;;;;10.88;5.22;;;;;;;-0.13;62.43;100742.91;1686483;85;21062;-62
2022/03/09 09:04:45;;;;;;;10.00;4.72;;;;;;;-0.12;62.70;100739.73;1686422;85;21038;-62
2022/03/09 09:07:14;;;;;;;14.55;5.62;;;;;;;-0.09;62.64;100738.14;1686600;85;21054;-60
2022/03/09 09:09:44;;;;;;;9.90;5.50;;;;;;;-0.13;62.49;100739.36;1686183;85;21039;-61
2022/03/09 09:12:13;;;;;;;9.73;4.85;;;;;;;-0.16;62.84;100741.80;1686558;85;21027;-62
2022/03/09 09:14:43;;;;;;;12.33;4.95;;;;;;;-0.07;62.92;100748.30;1686264;85;21027;-61
2022/03/09 09:17:13;;;;;;;12.95;4.97;;;;;;;-0.03;62.93;100739.86;1686620;85;21132;-61
2022/03/09 09:19:44;;;;;;;9.08;5.10;;;;;;;0.04;62.78;100744.30;1718100;82;21015;-61
2022/03/09 09:22:17;;;;;;;10.35;4.40;;;;;;;0.07;62.70;100740.50;1740376;82;21115;-62
2022/03/09 09:24:46;;;;;;;11.45;4.95;;;;;;;0.15;62.83;100738.91;1740533;82;21067;-61
2022/03/09 09:27:16;;;;;;;8.98;4.83;;;;;;;0.29;62.66;100742.70;1740431;82;21035;-61
2022/03/09 09:29:47;;;;;;;14.00;4.85;;;;;;;0.40;62.46;100741.84;1737319;82;21085;-60
2022/03/09 09:32:18;;;;;;;8.78;4.53;;;;;;;0.46;61.88;100745.37;1740324;81;21063;-61
2022/03/09 09:34:48;;;;;;;10.05;4.87;;;;;;;0.50;61.58;100743.29;1741792;82;21032;-62
2022/03/09 09:37:18;;;;;;;8.43;4.85;;;;;;;0.51;61.09;100738.27;1754051;80;21035;-61
2022/03/09 09:39:49;;;;;;;12.75;5.28;;;;;;;0.52;61.49;100739.48;1754150;82;21521;-61
2022/03/09 09:42:21;;;;;;;12.58;4.90;;;;;;;0.59;61.43;100728.56;1753998;82;21478;-62
2022/03/09 09:44:50;;;;;;;9.20;4.60;;;;;;;0.64;61.20;100729.54;1750236;82;21253;-63
2022/03/09 09:47:20;;;;;;;8.90;5.03;;;;;;;0.70;61.29;100736.30;1701559;82;21518;-62
2022/03/09 09:49:52;;;;;;;7.45;4.05;;;;;;;0.78;60.77;100736.52;1753991;82;21066;-60
2022/03/09 09:52:27;;;;;;;10.72;5.05;;;;;;;0.83;60.39;100731.60;1754002;82;21042;-63
2022/03/09 09:54:59;;;;;;;11.97;5.03;;;;;;;0.87;60.08;100737.11;1754078;82;21038;-62
2022/03/09 09:57:30;;;;;;;7.87;4.67;;;;;;;0.85;59.86;100735.88;1754006;82;21512;-63
2022/03/09 09:59:59;;;;;;;7.62;4.30;;;;;;;0.85;59.88;100739.93;1753988;82;21074;-61
2022/03/09 10:02:30;;;;;;;8.25;4.40;;;;;;;0.87;59.67;100736.61;1754050;82;21082;-61
2022/03/09 10:05:00;;;;;;;8.60;4.58;;;;;;;0.89;59.50;100733.30;1753926;82;21510;-61
2022/03/09 10:07:30;;;;;;;8.88;5.03;;;;;;;0.93;59.49;100736.11;1753985;82;21027;-62
2022/03/09 10:10:00;;;;;;;8.93;4.95;;;;;;;0.97;59.62;100742.10;1754107;82;20999;-61
2022/03/09 10:12:30;;;;;;;7.33;4.08;;;;;;;1.05;59.28;100742.81;1754011;82;21082;-60
2022/03/09 10:15:03;;;;;;;8.05;4.55;;;;;;;1.08;58.78;100745.25;1753966;82;21514;-61
2022/03/09 10:17:34;;;;;;;8.80;5.07;;;;;;;1.07;58.71;100741.70;1754198;82;20994;-60
2022/03/09 10:20:10;;;;;;;10.28;5.22;;;;;;;1.07;58.57;100741.70;1754175;82;21532;-60
2022/03/09 10:22:41;;;;;;;9.60;4.97;;;;;;;1.09;58.71;100755.06;1754227;82;21066;-62
2022/03/09 10:25:17;;;;;;;12.13;4.62;;;;;;;1.14;58.36;100747.44;1753173;82;21047;-61
2022/03/09 10:27:55;;;;;;;10.88;5.53;;;;;;;1.19;58.29;100757.34;1753962;81;21474;-61
2022/03/09 10:30:30;;;;;;;12.28;5.08;;;;;;;1.25;57.86;100752.78;1754141;82;21015;-60
2022/03/09 10:33:09;;;;;;;10.32;5.05;;;;;;;1.28;57.85;100753.88;1754069;81;21474;-61
2022/03/09 10:35:49;;;;;;;9.58;5.55;;;;;;;1.25;57.47;100752.78;1753834;82;21058;-62
2022/03/09 10:38:23;;;;;;;9.93;4.70;;;;;;;1.22;57.61;100754.39;1753954;80;21089;-60
2022/03/09 10:40:56;;;;;;;10.03;5.17;;;;;;;1.20;57.62;100752.31;1754239;80;21886;-61
2022/03/09 10:43:29;;;;;;;12.65;5.33;;;;;;;1.16;57.64;100748.16;1754133;82;21498;-61
2022/03/09 10:46:11;;;;;;;8.03;4.65;;;;;;;1.15;57.36;100750.50;1753950;82;21038;-60
2022/03/09 10:49:00;;;;;;;7.67;4.35;;;;;;;1.10;57.34;100750.03;1753960;82;21113;-61
2022/03/09 10:51:37;;;;;;;7.28;3.80;;;;;;;1.05;57.28;100750.91;1753980;82;21023;-62
2022/03/09 10:54:16;;;;;;;7.65;4.08;;;;;;;1.02;57.36;100754.72;1754129;82;21489;-61
2022/03/09 10:56:46;;;;;;;11.30;5.00;;;;;;;1.03;57.44;100751.03;1752038;82;21055;-62
2022/03/09 10:59:24;;;;;;;7.50;4.10;;;;;;;1.06;57.52;100749.92;1753926;82;21463;-62
2022/03/09 11:02:04;;;;;;;6.28;4.00;;;;;;;1.10;57.32;100744.14;1754386;82;21057;-61
2022/03/09 11:04:34;;;;;;;8.50;4.47;;;;;;;1.14;57.21;100744.73;1752892;82;21455;-61
2022/03/09 11:07:04;;;;;;;8.08;3.98;;;;;;;1.14;57.19;100742.03;1754059;82;21464;-62
2022/03/09 11:09:33;;;;;;;6.87;3.95;;;;;;;1.14;56.88;100741.55;1754050;82;21039;-62
2022/03/09 11:12:03;;;;;;;14.00;4.33;;;;;;;1.14;57.04;100743.39;1725074;82;21102;-61
2022/03/09 11:14:35;;;;;;;8.40;4.15;;;;;;;1.21;57.10;100742.74;1656678;85;21039;-62
2022/03/09 11:17:04;;;;;;;8.63;4.03;;;;;;;1.24;57.01;100742.98;1656519;86;21067;-61
2022/03/09 11:19:33;;;;;;;7.35;4.12;;;;;;;1.32;56.86;100748.61;1656695;86;21047;-60
2022/03/09 11:22:04;;;;;;;7.90;3.80;;;;;;;1.36;56.62;100741.97;1656487;86;21007;-62
2022/03/09 11:24:39;;;;;;;8.88;3.83;;;;;;;1.38;55.99;100744.05;1656697;86;21091;-61
2022/03/09 11:27:07;;;;;;;7.28;4.35;;;;;;;1.35;55.73;100737.55;1656618;86;21031;-61
2022/03/09 11:29:39;;;;;;;8.25;4.30;;;;;;;1.36;55.86;100739.27;1656635;86;21055;-61
2022/03/09 11:32:10;;;;;;;9.23;3.70;;;;;;;1.34;55.82;100739.03;1681463;82;21070;-61
2022/03/09 11:34:48;;;;;;;8.20;4.40;;;;;;;1.32;55.67;100746.41;1753865;82;21505;-61
2022/03/09 11:37:20;;;;;;;12.83;5.57;;;;;;;1.25;55.78;100741.98;1741875;82;21123;-61
2022/03/09 11:40:13;;;;;;;12.63;6.08;;;;;;;1.20;56.63;100742.88;1740091;81;21725;-61
2022/03/09 11:42:43;;;;;;;7.90;4.40;;;;;;;1.14;57.23;100748.29;1740144;81;21035;-62
2022/03/09 11:45:21;;;;;;;11.73;4.42;;;;;;;1.14;57.49;100748.29;1740371;81;21062;-60
2022/03/09 11:48:11;;;;;;;6.45;4.00;;;;;;;1.15;57.53;100749.15;1740186;82;21024;-60
2022/03/09 11:50:52;;;;;;;9.85;4.10;;;;;;;1.12;57.49;100742.16;1740201;82;21456;-62
2022/03/09 11:53:44;;;;;;;10.32;4.53;;;;;;;1.14;57.46;100746.08;1740310;82;21509;-61